sensor_id;sensor_type;location;lat;lon;timestamp;P1;durP1;ratioP1;P2;durP2;ratioP2
2434;SDS011;1228;51.022;6.764;2023-08-12T00:00:28;65.72;;;27.65;;
2434;SDS011;1228;51.022;6.764;2023-08-12T00:02:54;77.15;;;28.67;;
2434;SDS011;1228;51.022;6.764;2023-08-12T00:05:20;71.15;;;29.70;;
2434;SDS011;1228;51.022;6.764;2023-08-12T00:07:46;139.40;;;35.28;;
2434;SDS011;1228;51.022;6.764;2023-08-12T00:10:12;81.47;;;29.92;;
2434;SDS011;1228;51.022;6.764;2023-08-12T00:12:38;63.13;;;30.42;;
2434;SDS011;1228;51.022;6.764;2023-08-12T00:15:04;141.63;;;36.55;;
2434;SDS011;1228;51.022;6.764;2023-08-12T00:17:32;68.88;;;29.65;;
2434;SDS011;1228;51.022;6.764;2023-08-12T00:19:58;54.28;;;28.58;;
2434;SDS011;1228;51.022;6.764;2023-08-12T00:22:24;69.30;;;29.70;;
2434;SDS011;1228;51.022;6.764;2023-08-12T00:24:50;116.68;;;33.33;;
2434;SDS011;1228;51.022;6.764;2023-08-12T00:27:17;62.55;;;28.92;;
2434;SDS011;1228;51.022;6.764;2023-08-12T00:29:42;141.07;;;36.65;;
2434;SDS011;1228;51.022;6.764;2023-08-12T00:32:08;209.75;;;42.05;;
2434;SDS011;1228;51.022;6.764;2023-08-12T00:34:34;70.90;;;33.50;;
2434;SDS011;1228;51.022;6.764;2023-08-12T00:37:00;84.90;;;31.63;;
2434;SDS011;1228;51.022;6.764;2023-08-12T00:39:26;212.65;;;43.80;;
2434;SDS011;1228;51.022;6.764;2023-08-12T00:41:51;174.10;;;38.08;;
2434;SDS011;1228;51.022;6.764;2023-08-12T00:44:17;137.10;;;36.05;;
2434;SDS011;1228;51.022;6.764;2023-08-12T00:46:43;92.85;;;30.10;;
2434;SDS011;1228;51.022;6.764;2023-08-12T00:49:09;121.53;;;33.60;;
2434;SDS011;1228;51.022;6.764;2023-08-12T00:51:36;57.63;;;27.15;;
2434;SDS011;1228;51.022;6.764;2023-08-12T00:54:06;97.40;;;28.90;;
2434;SDS011;1228;51.022;6.764;2023-08-12T00:56:33;117.20;;;29.58;;
2434;SDS011;1228;51.022;6.764;2023-08-12T00:59:00;44.97;;;22.60;;
2434;SDS011;1228;51.022;6.764;2023-08-12T01:01:29;248.80;;;40.38;;
2434;SDS011;1228;51.022;6.764;2023-08-12T01:03:55;100.90;;;26.95;;
2434;SDS011;1228;51.022;6.764;2023-08-12T01:06:21;33.95;;;18.73;;
2434;SDS011;1228;51.022;6.764;2023-08-12T01:08:48;130.80;;;28.30;;
2434;SDS011;1228;51.022;6.764;2023-08-12T01:16:21;66.03;;;24.55;;
2434;SDS011;1228;51.022;6.764;2023-08-12T01:18:49;119.82;;;28.70;;
2434;SDS011;1228;51.022;6.764;2023-08-12T01:21:15;49.38;;;22.85;;
2434;SDS011;1228;51.022;6.764;2023-08-12T01:23:42;48.63;;;24.10;;
2434;SDS011;1228;51.022;6.764;2023-08-12T01:26:08;52.90;;;23.65;;
2434;SDS011;1228;51.022;6.764;2023-08-12T01:28:34;59.40;;;23.80;;
2434;SDS011;1228;51.022;6.764;2023-08-12T01:31:08;167.77;;;33.50;;
2434;SDS011;1228;51.022;6.764;2023-08-12T01:33:59;55.90;;;25.42;;
2434;SDS011;1228;51.022;6.764;2023-08-12T01:36:45;40.92;;;24.52;;
2434;SDS011;1228;51.022;6.764;2023-08-12T01:39:15;86.25;;;29.02;;
2434;SDS011;1228;51.022;6.764;2023-08-12T01:41:43;105.32;;;29.80;;
2434;SDS011;1228;51.022;6.764;2023-08-12T01:44:09;71.60;;;28.42;;
2434;SDS011;1228;51.022;6.764;2023-08-12T01:46:35;72.07;;;26.65;;
2434;SDS011;1228;51.022;6.764;2023-08-12T01:49:01;66.15;;;27.25;;
2434;SDS011;1228;51.022;6.764;2023-08-12T01:51:27;82.75;;;29.20;;
2434;SDS011;1228;51.022;6.764;2023-08-12T01:53:54;57.80;;;27.15;;
2434;SDS011;1228;51.022;6.764;2023-08-12T01:56:19;44.05;;;26.02;;
2434;SDS011;1228;51.022;6.764;2023-08-12T01:58:45;73.35;;;27.38;;
2434;SDS011;1228;51.022;6.764;2023-08-12T02:01:10;58.90;;;27.55;;
2434;SDS011;1228;51.022;6.764;2023-08-12T02:03:36;51.42;;;27.88;;
2434;SDS011;1228;51.022;6.764;2023-08-12T02:06:02;51.55;;;26.80;;
2434;SDS011;1228;51.022;6.764;2023-08-12T02:08:27;52.25;;;27.65;;
2434;SDS011;1228;51.022;6.764;2023-08-12T02:10:53;51.50;;;28.15;;
2434;SDS011;1228;51.022;6.764;2023-08-12T02:13:18;50.17;;;27.00;;
2434;SDS011;1228;51.022;6.764;2023-08-12T02:15:44;56.72;;;26.70;;
2434;SDS011;1228;51.022;6.764;2023-08-12T02:18:10;63.25;;;28.27;;
2434;SDS011;1228;51.022;6.764;2023-08-12T02:20:35;61.25;;;28.65;;
2434;SDS011;1228;51.022;6.764;2023-08-12T02:23:01;59.65;;;29.17;;
2434;SDS011;1228;51.022;6.764;2023-08-12T02:25:26;60.22;;;28.83;;
2434;SDS011;1228;51.022;6.764;2023-08-12T02:27:52;62.83;;;27.95;;
2434;SDS011;1228;51.022;6.764;2023-08-12T02:30:17;50.55;;;27.27;;
2434;SDS011;1228;51.022;6.764;2023-08-12T02:32:43;60.85;;;29.30;;
2434;SDS011;1228;51.022;6.764;2023-08-12T02:35:09;53.17;;;28.35;;
2434;SDS011;1228;51.022;6.764;2023-08-12T02:37:35;62.08;;;29.83;;
2434;SDS011;1228;51.022;6.764;2023-08-12T02:40:01;64.97;;;30.50;;
2434;SDS011;1228;51.022;6.764;2023-08-12T02:42:29;53.35;;;29.08;;
2434;SDS011;1228;51.022;6.764;2023-08-12T02:44:55;55.47;;;28.38;;
2434;SDS011;1228;51.022;6.764;2023-08-12T02:47:21;59.50;;;27.95;;
2434;SDS011;1228;51.022;6.764;2023-08-12T02:49:46;56.30;;;28.70;;
2434;SDS011;1228;51.022;6.764;2023-08-12T02:52:12;66.53;;;29.13;;
2434;SDS011;1228;51.022;6.764;2023-08-12T02:54:39;50.47;;;27.40;;
2434;SDS011;1228;51.022;6.764;2023-08-12T02:57:04;53.35;;;27.13;;
2434;SDS011;1228;51.022;6.764;2023-08-12T02:59:30;49.40;;;28.92;;
2434;SDS011;1228;51.022;6.764;2023-08-12T03:01:56;52.22;;;28.38;;
2434;SDS011;1228;51.022;6.764;2023-08-12T03:04:21;49.75;;;27.65;;
2434;SDS011;1228;51.022;6.764;2023-08-12T03:06:47;64.45;;;28.17;;
2434;SDS011;1228;51.022;6.764;2023-08-12T03:09:13;57.80;;;29.35;;
2434;SDS011;1228;51.022;6.764;2023-08-12T03:11:38;67.45;;;29.92;;
2434;SDS011;1228;51.022;6.764;2023-08-12T03:14:07;64.80;;;29.55;;
2434;SDS011;1228;51.022;6.764;2023-08-12T03:16:33;55.83;;;27.80;;
2434;SDS011;1228;51.022;6.764;2023-08-12T03:18:58;65.93;;;27.90;;
2434;SDS011;1228;51.022;6.764;2023-08-12T03:21:24;49.47;;;27.70;;
2434;SDS011;1228;51.022;6.764;2023-08-12T03:23:49;61.33;;;27.38;;
2434;SDS011;1228;51.022;6.764;2023-08-12T03:26:15;39.95;;;25.23;;
2434;SDS011;1228;51.022;6.764;2023-08-12T03:28:40;47.90;;;26.27;;
2434;SDS011;1228;51.022;6.764;2023-08-12T03:31:06;49.15;;;24.20;;
2434;SDS011;1228;51.022;6.764;2023-08-12T03:33:32;50.33;;;24.58;;
2434;SDS011;1228;51.022;6.764;2023-08-12T03:35:58;44.78;;;23.85;;
2434;SDS011;1228;51.022;6.764;2023-08-12T03:38:24;42.15;;;23.38;;
2434;SDS011;1228;51.022;6.764;2023-08-12T03:40:50;49.80;;;24.80;;
2434;SDS011;1228;51.022;6.764;2023-08-12T03:43:15;49.53;;;24.90;;
2434;SDS011;1228;51.022;6.764;2023-08-12T03:45:44;53.00;;;26.23;;
2434;SDS011;1228;51.022;6.764;2023-08-12T03:48:10;47.55;;;24.33;;
2434;SDS011;1228;51.022;6.764;2023-08-12T03:50:37;46.78;;;25.48;;
2434;SDS011;1228;51.022;6.764;2023-08-12T03:53:03;50.35;;;27.27;;
2434;SDS011;1228;51.022;6.764;2023-08-12T03:55:30;52.95;;;27.17;;
2434;SDS011;1228;51.022;6.764;2023-08-12T03:57:57;48.70;;;27.83;;
2434;SDS011;1228;51.022;6.764;2023-08-12T04:00:23;62.42;;;28.85;;
2434;SDS011;1228;51.022;6.764;2023-08-12T04:02:48;52.53;;;27.10;;
2434;SDS011;1228;51.022;6.764;2023-08-12T04:05:14;59.35;;;29.15;;
2434;SDS011;1228;51.022;6.764;2023-08-12T04:07:39;58.35;;;29.27;;
2434;SDS011;1228;51.022;6.764;2023-08-12T04:10:05;66.47;;;29.83;;
2434;SDS011;1228;51.022;6.764;2023-08-12T04:12:31;67.80;;;30.70;;
2434;SDS011;1228;51.022;6.764;2023-08-12T04:14:57;66.03;;;31.40;;
2434;SDS011;1228;51.022;6.764;2023-08-12T04:17:22;68.75;;;31.65;;
2434;SDS011;1228;51.022;6.764;2023-08-12T04:19:48;64.40;;;31.65;;
2434;SDS011;1228;51.022;6.764;2023-08-12T04:22:14;70.93;;;32.38;;
2434;SDS011;1228;51.022;6.764;2023-08-12T04:24:40;64.35;;;32.22;;
2434;SDS011;1228;51.022;6.764;2023-08-12T04:27:05;58.22;;;32.00;;
2434;SDS011;1228;51.022;6.764;2023-08-12T04:29:31;53.55;;;30.52;;
2434;SDS011;1228;51.022;6.764;2023-08-12T04:31:57;57.30;;;30.50;;
2434;SDS011;1228;51.022;6.764;2023-08-12T04:34:22;60.35;;;30.52;;
2434;SDS011;1228;51.022;6.764;2023-08-12T04:36:48;46.42;;;29.60;;
2434;SDS011;1228;51.022;6.764;2023-08-12T04:39:13;55.90;;;30.67;;
2434;SDS011;1228;51.022;6.764;2023-08-12T04:41:39;53.53;;;31.05;;
2434;SDS011;1228;51.022;6.764;2023-08-12T04:44:05;54.17;;;31.02;;
2434;SDS011;1228;51.022;6.764;2023-08-12T04:46:30;62.38;;;31.65;;
2434;SDS011;1228;51.022;6.764;2023-08-12T04:48:57;57.22;;;30.27;;
2434;SDS011;1228;51.022;6.764;2023-08-12T04:51:22;54.97;;;30.30;;
2434;SDS011;1228;51.022;6.764;2023-08-12T04:53:48;53.70;;;30.50;;
2434;SDS011;1228;51.022;6.764;2023-08-12T04:56:13;54.75;;;30.60;;
2434;SDS011;1228;51.022;6.764;2023-08-12T04:58:39;54.50;;;29.73;;
2434;SDS011;1228;51.022;6.764;2023-08-12T05:01:04;54.17;;;30.23;;
2434;SDS011;1228;51.022;6.764;2023-08-12T05:03:30;52.28;;;30.08;;
2434;SDS011;1228;51.022;6.764;2023-08-12T05:05:56;51.33;;;30.58;;
2434;SDS011;1228;51.022;6.764;2023-08-12T05:08:21;50.83;;;27.20;;
2434;SDS011;1228;51.022;6.764;2023-08-12T05:10:47;55.15;;;29.67;;
2434;SDS011;1228;51.022;6.764;2023-08-12T05:13:14;46.58;;;27.80;;
2434;SDS011;1228;51.022;6.764;2023-08-12T05:15:39;41.97;;;26.77;;
2434;SDS011;1228;51.022;6.764;2023-08-12T05:18:05;40.30;;;25.88;;
2434;SDS011;1228;51.022;6.764;2023-08-12T05:20:31;41.50;;;26.20;;
2434;SDS011;1228;51.022;6.764;2023-08-12T05:22:57;44.10;;;23.97;;
2434;SDS011;1228;51.022;6.764;2023-08-12T05:25:23;36.40;;;23.23;;
2434;SDS011;1228;51.022;6.764;2023-08-12T05:27:49;39.17;;;24.63;;
2434;SDS011;1228;51.022;6.764;2023-08-12T05:30:15;33.50;;;20.95;;
2434;SDS011;1228;51.022;6.764;2023-08-12T05:32:40;33.97;;;21.42;;
2434;SDS011;1228;51.022;6.764;2023-08-12T05:35:06;31.50;;;20.45;;
2434;SDS011;1228;51.022;6.764;2023-08-12T05:37:32;29.30;;;20.13;;
2434;SDS011;1228;51.022;6.764;2023-08-12T05:39:58;27.83;;;18.95;;
2434;SDS011;1228;51.022;6.764;2023-08-12T05:42:23;32.30;;;20.17;;
2434;SDS011;1228;51.022;6.764;2023-08-12T05:44:49;31.80;;;19.67;;
2434;SDS011;1228;51.022;6.764;2023-08-12T05:47:14;23.65;;;18.80;;
2434;SDS011;1228;51.022;6.764;2023-08-12T05:49:40;29.23;;;20.08;;
2434;SDS011;1228;51.022;6.764;2023-08-12T05:52:07;32.13;;;22.07;;
2434;SDS011;1228;51.022;6.764;2023-08-12T05:54:32;28.75;;;21.30;;
2434;SDS011;1228;51.022;6.764;2023-08-12T05:56:58;32.50;;;21.95;;
2434;SDS011;1228;51.022;6.764;2023-08-12T05:59:24;32.53;;;22.20;;
2434;SDS011;1228;51.022;6.764;2023-08-12T06:01:50;34.50;;;21.42;;
2434;SDS011;1228;51.022;6.764;2023-08-12T06:04:15;33.60;;;21.65;;
2434;SDS011;1228;51.022;6.764;2023-08-12T06:06:41;27.85;;;21.13;;
2434;SDS011;1228;51.022;6.764;2023-08-12T06:09:07;35.92;;;22.50;;
2434;SDS011;1228;51.022;6.764;2023-08-12T06:11:33;33.50;;;22.55;;
2434;SDS011;1228;51.022;6.764;2023-08-12T06:13:58;39.83;;;24.33;;
2434;SDS011;1228;51.022;6.764;2023-08-12T06:16:24;36.05;;;23.10;;
2434;SDS011;1228;51.022;6.764;2023-08-12T06:18:50;35.83;;;24.52;;
2434;SDS011;1228;51.022;6.764;2023-08-12T06:21:15;38.20;;;24.80;;
2434;SDS011;1228;51.022;6.764;2023-08-12T06:23:41;43.13;;;24.88;;
2434;SDS011;1228;51.022;6.764;2023-08-12T06:26:06;40.45;;;25.00;;
2434;SDS011;1228;51.022;6.764;2023-08-12T06:28:32;44.47;;;26.03;;
2434;SDS011;1228;51.022;6.764;2023-08-12T06:30:57;40.85;;;26.08;;
2434;SDS011;1228;51.022;6.764;2023-08-12T06:33:23;44.38;;;25.25;;
2434;SDS011;1228;51.022;6.764;2023-08-12T06:35:50;40.47;;;25.17;;
2434;SDS011;1228;51.022;6.764;2023-08-12T06:38:16;43.73;;;24.70;;
2434;SDS011;1228;51.022;6.764;2023-08-12T06:40:41;35.37;;;22.93;;
2434;SDS011;1228;51.022;6.764;2023-08-12T06:43:07;28.90;;;21.00;;
2434;SDS011;1228;51.022;6.764;2023-08-12T06:45:33;28.35;;;20.45;;
2434;SDS011;1228;51.022;6.764;2023-08-12T06:47:59;28.08;;;19.70;;
2434;SDS011;1228;51.022;6.764;2023-08-12T06:50:27;30.20;;;21.55;;
2434;SDS011;1228;51.022;6.764;2023-08-12T06:52:52;28.63;;;19.83;;
2434;SDS011;1228;51.022;6.764;2023-08-12T06:55:18;32.15;;;19.27;;
2434;SDS011;1228;51.022;6.764;2023-08-12T06:57:44;22.75;;;16.40;;
2434;SDS011;1228;51.022;6.764;2023-08-12T07:00:10;20.98;;;15.65;;
2434;SDS011;1228;51.022;6.764;2023-08-12T07:02:36;16.95;;;13.30;;
2434;SDS011;1228;51.022;6.764;2023-08-12T07:05:02;16.23;;;12.15;;
2434;SDS011;1228;51.022;6.764;2023-08-12T07:07:28;14.52;;;11.05;;
2434;SDS011;1228;51.022;6.764;2023-08-12T07:09:53;12.15;;;9.88;;
2434;SDS011;1228;51.022;6.764;2023-08-12T07:12:19;10.65;;;8.80;;
2434;SDS011;1228;51.022;6.764;2023-08-12T07:14:45;10.90;;;9.68;;
2434;SDS011;1228;51.022;6.764;2023-08-12T07:17:10;10.25;;;8.95;;
2434;SDS011;1228;51.022;6.764;2023-08-12T07:19:36;11.18;;;9.52;;
2434;SDS011;1228;51.022;6.764;2023-08-12T07:22:02;9.95;;;8.70;;
2434;SDS011;1228;51.022;6.764;2023-08-12T07:24:27;10.38;;;8.02;;
2434;SDS011;1228;51.022;6.764;2023-08-12T07:26:53;10.05;;;9.02;;
2434;SDS011;1228;51.022;6.764;2023-08-12T07:29:18;8.63;;;7.82;;
2434;SDS011;1228;51.022;6.764;2023-08-12T07:31:45;9.23;;;8.07;;
2434;SDS011;1228;51.022;6.764;2023-08-12T07:34:11;9.40;;;8.40;;
2434;SDS011;1228;51.022;6.764;2023-08-12T07:36:38;10.35;;;8.43;;
2434;SDS011;1228;51.022;6.764;2023-08-12T07:39:05;8.82;;;7.93;;
2434;SDS011;1228;51.022;6.764;2023-08-12T07:41:31;9.13;;;7.65;;
2434;SDS011;1228;51.022;6.764;2023-08-12T07:43:57;10.13;;;7.88;;
2434;SDS011;1228;51.022;6.764;2023-08-12T07:46:22;8.43;;;7.63;;
2434;SDS011;1228;51.022;6.764;2023-08-12T07:48:48;11.35;;;7.50;;
2434;SDS011;1228;51.022;6.764;2023-08-12T07:51:14;8.55;;;7.22;;
2434;SDS011;1228;51.022;6.764;2023-08-12T07:53:40;8.95;;;7.75;;
2434;SDS011;1228;51.022;6.764;2023-08-12T07:56:05;9.90;;;6.95;;
2434;SDS011;1228;51.022;6.764;2023-08-12T07:58:31;7.50;;;6.72;;
2434;SDS011;1228;51.022;6.764;2023-08-12T08:00:57;8.05;;;6.95;;
2434;SDS011;1228;51.022;6.764;2023-08-12T08:03:22;8.25;;;6.95;;
2434;SDS011;1228;51.022;6.764;2023-08-12T08:05:48;7.68;;;6.50;;
2434;SDS011;1228;51.022;6.764;2023-08-12T08:08:13;7.88;;;6.38;;
2434;SDS011;1228;51.022;6.764;2023-08-12T08:10:39;8.15;;;6.25;;
2434;SDS011;1228;51.022;6.764;2023-08-12T08:13:05;7.15;;;6.40;;
2434;SDS011;1228;51.022;6.764;2023-08-12T08:15:30;9.70;;;6.25;;
2434;SDS011;1228;51.022;6.764;2023-08-12T08:17:56;7.00;;;6.07;;
2434;SDS011;1228;51.022;6.764;2023-08-12T08:20:22;8.43;;;5.20;;
2434;SDS011;1228;51.022;6.764;2023-08-12T08:22:47;6.45;;;5.53;;
2434;SDS011;1228;51.022;6.764;2023-08-12T08:25:13;5.70;;;5.15;;
2434;SDS011;1228;51.022;6.764;2023-08-12T08:27:38;8.60;;;5.13;;
2434;SDS011;1228;51.022;6.764;2023-08-12T08:30:05;5.55;;;5.05;;
2434;SDS011;1228;51.022;6.764;2023-08-12T08:32:31;8.10;;;4.28;;
2434;SDS011;1228;51.022;6.764;2023-08-12T08:34:58;5.03;;;4.63;;
2434;SDS011;1228;51.022;6.764;2023-08-12T08:37:23;5.15;;;4.75;;
2434;SDS011;1228;51.022;6.764;2023-08-12T08:39:49;4.68;;;3.85;;
2434;SDS011;1228;51.022;6.764;2023-08-12T08:42:15;5.30;;;4.82;;
2434;SDS011;1228;51.022;6.764;2023-08-12T08:44:40;7.72;;;4.85;;
2434;SDS011;1228;51.022;6.764;2023-08-12T08:47:08;4.70;;;4.30;;
2434;SDS011;1228;51.022;6.764;2023-08-12T08:49:34;7.72;;;4.82;;
2434;SDS011;1228;51.022;6.764;2023-08-12T08:52:01;8.23;;;4.60;;
2434;SDS011;1228;51.022;6.764;2023-08-12T08:54:27;5.22;;;4.35;;
2434;SDS011;1228;51.022;6.764;2023-08-12T08:56:53;4.85;;;4.28;;
2434;SDS011;1228;51.022;6.764;2023-08-12T08:59:19;6.55;;;4.93;;
2434;SDS011;1228;51.022;6.764;2023-08-12T09:01:46;5.15;;;4.70;;
2434;SDS011;1228;51.022;6.764;2023-08-12T09:04:16;4.90;;;4.40;;
2434;SDS011;1228;51.022;6.764;2023-08-12T09:06:43;5.88;;;5.38;;
2434;SDS011;1228;51.022;6.764;2023-08-12T09:09:10;5.38;;;4.82;;
2434;SDS011;1228;51.022;6.764;2023-08-12T09:11:39;4.60;;;4.10;;
2434;SDS011;1228;51.022;6.764;2023-08-12T09:14:05;4.18;;;3.72;;
2434;SDS011;1228;51.022;6.764;2023-08-12T09:16:32;4.93;;;3.70;;
2434;SDS011;1228;51.022;6.764;2023-08-12T09:18:57;3.75;;;3.40;;
2434;SDS011;1228;51.022;6.764;2023-08-12T09:21:23;3.47;;;3.17;;
2434;SDS011;1228;51.022;6.764;2023-08-12T09:23:49;3.45;;;3.22;;
2434;SDS011;1228;51.022;6.764;2023-08-12T09:26:16;2.85;;;2.63;;
2434;SDS011;1228;51.022;6.764;2023-08-12T09:28:44;3.03;;;2.80;;
2434;SDS011;1228;51.022;6.764;2023-08-12T09:31:23;2.92;;;2.63;;
2434;SDS011;1228;51.022;6.764;2023-08-12T09:33:51;2.88;;;2.67;;
2434;SDS011;1228;51.022;6.764;2023-08-12T09:36:18;2.92;;;2.72;;
2434;SDS011;1228;51.022;6.764;2023-08-12T09:38:46;3.28;;;3.08;;
2434;SDS011;1228;51.022;6.764;2023-08-12T09:41:12;2.47;;;2.33;;
2434;SDS011;1228;51.022;6.764;2023-08-12T09:43:42;2.88;;;2.67;;
2434;SDS011;1228;51.022;6.764;2023-08-12T09:46:11;2.45;;;2.30;;
2434;SDS011;1228;51.022;6.764;2023-08-12T09:48:40;2.50;;;2.40;;
2434;SDS011;1228;51.022;6.764;2023-08-12T09:51:06;2.30;;;2.10;;
2434;SDS011;1228;51.022;6.764;2023-08-12T09:53:33;2.65;;;2.45;;
2434;SDS011;1228;51.022;6.764;2023-08-12T09:56:06;2.55;;;2.35;;
2434;SDS011;1228;51.022;6.764;2023-08-12T09:58:33;2.63;;;2.42;;
2434;SDS011;1228;51.022;6.764;2023-08-12T10:01:01;2.78;;;2.58;;
2434;SDS011;1228;51.022;6.764;2023-08-12T10:03:28;3.78;;;2.50;;
2434;SDS011;1228;51.022;6.764;2023-08-12T10:05:55;2.72;;;2.53;;
2434;SDS011;1228;51.022;6.764;2023-08-12T10:08:21;3.05;;;2.92;;
2434;SDS011;1228;51.022;6.764;2023-08-12T10:10:47;3.15;;;2.63;;
2434;SDS011;1228;51.022;6.764;2023-08-12T10:13:13;2.88;;;2.67;;
2434;SDS011;1228;51.022;6.764;2023-08-12T10:15:40;2.53;;;2.33;;
2434;SDS011;1228;51.022;6.764;2023-08-12T10:18:06;2.67;;;2.47;;
2434;SDS011;1228;51.022;6.764;2023-08-12T10:20:33;3.33;;;2.25;;
2434;SDS011;1228;51.022;6.764;2023-08-12T10:23:01;2.83;;;2.33;;
2434;SDS011;1228;51.022;6.764;2023-08-12T10:25:31;2.33;;;2.20;;
2434;SDS011;1228;51.022;6.764;2023-08-12T10:27:58;2.72;;;2.58;;
2434;SDS011;1228;51.022;6.764;2023-08-12T10:30:23;2.15;;;2.03;;
2434;SDS011;1228;51.022;6.764;2023-08-12T10:32:52;2.33;;;2.17;;
2434;SDS011;1228;51.022;6.764;2023-08-12T10:35:18;2.40;;;2.28;;
2434;SDS011;1228;51.022;6.764;2023-08-12T10:37:47;2.97;;;2.78;;
2434;SDS011;1228;51.022;6.764;2023-08-12T10:40:21;3.95;;;2.00;;
2434;SDS011;1228;51.022;6.764;2023-08-12T10:42:48;2.50;;;2.40;;
2434;SDS011;1228;51.022;6.764;2023-08-12T10:45:15;2.67;;;2.40;;
2434;SDS011;1228;51.022;6.764;2023-08-12T10:50:16;2.38;;;2.17;;
2434;SDS011;1228;51.022;6.764;2023-08-12T10:52:46;2.55;;;2.35;;
2434;SDS011;1228;51.022;6.764;2023-08-12T10:57:49;2.70;;;2.50;;
2434;SDS011;1228;51.022;6.764;2023-08-12T11:00:16;2.58;;;2.30;;
2434;SDS011;1228;51.022;6.764;2023-08-12T11:02:48;2.30;;;2.20;;
2434;SDS011;1228;51.022;6.764;2023-08-12T11:05:16;2.50;;;2.30;;
2434;SDS011;1228;51.022;6.764;2023-08-12T11:07:44;5.18;;;2.30;;
2434;SDS011;1228;51.022;6.764;2023-08-12T11:10:26;2.35;;;2.25;;
2434;SDS011;1228;51.022;6.764;2023-08-12T11:18:02;2.97;;;2.78;;
2434;SDS011;1228;51.022;6.764;2023-08-12T11:20:29;2.70;;;2.50;;
2434;SDS011;1228;51.022;6.764;2023-08-12T11:22:55;2.80;;;2.60;;
2434;SDS011;1228;51.022;6.764;2023-08-12T11:25:23;2.60;;;2.50;;
2434;SDS011;1228;51.022;6.764;2023-08-12T11:27:49;2.92;;;2.70;;
2434;SDS011;1228;51.022;6.764;2023-08-12T11:30:16;2.97;;;2.78;;
2434;SDS011;1228;51.022;6.764;2023-08-12T11:32:43;2.83;;;2.63;;
2434;SDS011;1228;51.022;6.764;2023-08-12T11:35:11;3.03;;;2.83;;
2434;SDS011;1228;51.022;6.764;2023-08-12T11:37:38;3.38;;;3.05;;
2434;SDS011;1228;51.022;6.764;2023-08-12T11:40:06;3.10;;;2.88;;
2434;SDS011;1228;51.022;6.764;2023-08-12T11:42:37;3.28;;;2.97;;
2434;SDS011;1228;51.022;6.764;2023-08-12T11:45:04;3.50;;;2.95;;
2434;SDS011;1228;51.022;6.764;2023-08-12T11:47:30;2.70;;;2.50;;
2434;SDS011;1228;51.022;6.764;2023-08-12T11:49:56;2.90;;;2.70;;
2434;SDS011;1228;51.022;6.764;2023-08-12T11:52:22;3.40;;;3.20;;
2434;SDS011;1228;51.022;6.764;2023-08-12T11:54:49;3.05;;;2.75;;
2434;SDS011;1228;51.022;6.764;2023-08-12T11:57:15;3.28;;;2.97;;
2434;SDS011;1228;51.022;6.764;2023-08-12T11:59:41;4.00;;;2.60;;
2434;SDS011;1228;51.022;6.764;2023-08-12T12:02:08;4.63;;;3.03;;
2434;SDS011;1228;51.022;6.764;2023-08-12T12:04:35;2.47;;;2.28;;
2434;SDS011;1228;51.022;6.764;2023-08-12T12:07:00;4.82;;;2.50;;
2434;SDS011;1228;51.022;6.764;2023-08-12T12:09:31;2.58;;;2.38;;
2434;SDS011;1228;51.022;6.764;2023-08-12T12:11:57;2.58;;;2.33;;
2434;SDS011;1228;51.022;6.764;2023-08-12T12:14:24;2.30;;;2.20;;
2434;SDS011;1228;51.022;6.764;2023-08-12T12:16:50;2.60;;;2.50;;
2434;SDS011;1228;51.022;6.764;2023-08-12T12:19:19;2.60;;;2.40;;
2434;SDS011;1228;51.022;6.764;2023-08-12T12:21:47;3.15;;;2.83;;
2434;SDS011;1228;51.022;6.764;2023-08-12T12:24:14;4.25;;;2.67;;
2434;SDS011;1228;51.022;6.764;2023-08-12T12:26:40;2.92;;;2.70;;
2434;SDS011;1228;51.022;6.764;2023-08-12T12:29:06;4.28;;;2.60;;
2434;SDS011;1228;51.022;6.764;2023-08-12T12:31:33;3.58;;;3.05;;
2434;SDS011;1228;51.022;6.764;2023-08-12T12:34:01;3.05;;;2.65;;
2434;SDS011;1228;51.022;6.764;2023-08-12T12:36:28;3.15;;;2.85;;
2434;SDS011;1228;51.022;6.764;2023-08-12T12:38:54;6.60;;;2.80;;
2434;SDS011;1228;51.022;6.764;2023-08-12T12:41:20;2.80;;;2.60;;
2434;SDS011;1228;51.022;6.764;2023-08-12T12:43:45;3.28;;;2.38;;
2434;SDS011;1228;51.022;6.764;2023-08-12T12:46:11;3.13;;;2.92;;
2434;SDS011;1228;51.022;6.764;2023-08-12T12:48:37;2.95;;;2.17;;
2434;SDS011;1228;51.022;6.764;2023-08-12T12:51:02;2.53;;;2.33;;
2434;SDS011;1228;51.022;6.764;2023-08-12T12:53:28;2.63;;;2.22;;
2434;SDS011;1228;51.022;6.764;2023-08-12T12:55:54;2.83;;;2.53;;
2434;SDS011;1228;51.022;6.764;2023-08-12T12:58:21;2.20;;;2.05;;
2434;SDS011;1228;51.022;6.764;2023-08-12T13:00:48;2.20;;;2.00;;
2434;SDS011;1228;51.022;6.764;2023-08-12T13:03:14;4.50;;;2.20;;
2434;SDS011;1228;51.022;6.764;2023-08-12T13:05:40;2.72;;;2.38;;
2434;SDS011;1228;51.022;6.764;2023-08-12T13:08:05;2.17;;;2.08;;
2434;SDS011;1228;51.022;6.764;2023-08-12T13:10:31;2.80;;;2.60;;
2434;SDS011;1228;51.022;6.764;2023-08-12T13:12:56;2.70;;;2.53;;
2434;SDS011;1228;51.022;6.764;2023-08-12T13:15:22;2.97;;;2.78;;
2434;SDS011;1228;51.022;6.764;2023-08-12T13:17:50;2.80;;;2.70;;
2434;SDS011;1228;51.022;6.764;2023-08-12T13:20:15;2.70;;;2.50;;
2434;SDS011;1228;51.022;6.764;2023-08-12T13:22:41;3.20;;;2.90;;
2434;SDS011;1228;51.022;6.764;2023-08-12T13:25:07;3.20;;;3.00;;
2434;SDS011;1228;51.022;6.764;2023-08-12T13:27:32;3.15;;;2.95;;
2434;SDS011;1228;51.022;6.764;2023-08-12T13:29:58;3.70;;;3.45;;
2434;SDS011;1228;51.022;6.764;2023-08-12T13:32:24;3.35;;;3.15;;
2434;SDS011;1228;51.022;6.764;2023-08-12T13:34:49;3.60;;;3.40;;
2434;SDS011;1228;51.022;6.764;2023-08-12T13:37:15;3.53;;;3.15;;
2434;SDS011;1228;51.022;6.764;2023-08-12T13:39:40;3.47;;;3.28;;
2434;SDS011;1228;51.022;6.764;2023-08-12T13:42:06;3.58;;;3.28;;
2434;SDS011;1228;51.022;6.764;2023-08-12T13:44:31;4.15;;;3.75;;
2434;SDS011;1228;51.022;6.764;2023-08-12T13:46:57;3.33;;;3.13;;
2434;SDS011;1228;51.022;6.764;2023-08-12T13:49:23;3.40;;;3.20;;
2434;SDS011;1228;51.022;6.764;2023-08-12T13:51:48;5.10;;;3.50;;
2434;SDS011;1228;51.022;6.764;2023-08-12T13:54:14;2.85;;;2.65;;
2434;SDS011;1228;51.022;6.764;2023-08-12T13:56:39;2.65;;;2.47;;
2434;SDS011;1228;51.022;6.764;2023-08-12T13:59:05;2.33;;;2.13;;
2434;SDS011;1228;51.022;6.764;2023-08-12T14:01:30;2.25;;;2.15;;
2434;SDS011;1228;51.022;6.764;2023-08-12T14:03:56;2.30;;;2.20;;
2434;SDS011;1228;51.022;6.764;2023-08-12T14:06:22;2.00;;;1.90;;
2434;SDS011;1228;51.022;6.764;2023-08-12T14:08:47;2.30;;;2.20;;
2434;SDS011;1228;51.022;6.764;2023-08-12T14:11:13;2.60;;;2.28;;
2434;SDS011;1228;51.022;6.764;2023-08-12T14:13:38;2.33;;;2.22;;
2434;SDS011;1228;51.022;6.764;2023-08-12T14:16:04;2.42;;;2.08;;
2434;SDS011;1228;51.022;6.764;2023-08-12T14:18:29;1.88;;;1.77;;
2434;SDS011;1228;51.022;6.764;2023-08-12T14:20:55;2.58;;;2.38;;
2434;SDS011;1228;51.022;6.764;2023-08-12T14:23:21;2.45;;;2.15;;
2434;SDS011;1228;51.022;6.764;2023-08-12T14:25:46;2.35;;;2.15;;
2434;SDS011;1228;51.022;6.764;2023-08-12T14:28:12;1.98;;;1.83;;
2434;SDS011;1228;51.022;6.764;2023-08-12T14:30:38;3.88;;;2.25;;
2434;SDS011;1228;51.022;6.764;2023-08-12T14:33:03;2.88;;;2.30;;
2434;SDS011;1228;51.022;6.764;2023-08-12T14:35:29;8.90;;;2.47;;
2434;SDS011;1228;51.022;6.764;2023-08-12T14:37:55;4.20;;;2.83;;
2434;SDS011;1228;51.022;6.764;2023-08-12T14:40:20;2.03;;;1.92;;
2434;SDS011;1228;51.022;6.764;2023-08-12T14:42:46;2.70;;;1.98;;
2434;SDS011;1228;51.022;6.764;2023-08-12T14:45:11;6.50;;;2.53;;
2434;SDS011;1228;51.022;6.764;2023-08-12T14:47:37;2.13;;;2.00;;
2434;SDS011;1228;51.022;6.764;2023-08-12T14:50:03;2.33;;;2.22;;
2434;SDS011;1228;51.022;6.764;2023-08-12T14:52:29;2.15;;;2.05;;
2434;SDS011;1228;51.022;6.764;2023-08-12T14:54:54;1.92;;;1.80;;
2434;SDS011;1228;51.022;6.764;2023-08-12T14:57:20;2.92;;;2.72;;
2434;SDS011;1228;51.022;6.764;2023-08-12T14:59:46;2.60;;;2.40;;
2434;SDS011;1228;51.022;6.764;2023-08-12T15:02:15;2.08;;;1.90;;
2434;SDS011;1228;51.022;6.764;2023-08-12T15:04:42;1.90;;;1.80;;
2434;SDS011;1228;51.022;6.764;2023-08-12T15:07:07;3.22;;;2.53;;
2434;SDS011;1228;51.022;6.764;2023-08-12T15:09:33;2.60;;;2.03;;